Terminal Aerodrome Forecast
Issued by NWS

Home | Current Version | Previous Version | Text Only | Print | Product List | Glossary On
Versions: 1 2 3 4 5 6 7 8 9 10 11 12 13 14 15 16 17 18 19 20 21 22 23 24 25 26 27 28 29 30 31 32 33 34 35 36 37 38 39 40
000
FTUS46 KOTX 282324
TAFSFF
TAF
KSFF 282324Z 2900/2924 21011KT P6SM -RA BKN035 OVC050
     FM290200 21007KT P6SM -RA SCT025 OVC050
     FM290800 15005KT P6SM -RA BKN025 OVC060
     FM291100 15005KT 5SM -RA BR OVC020
     FM291600 19007KT P6SM -RA BKN015 OVC035=

USA.gov is the U.S. government's official web portal to all federal, state and local government web resources and services.